Time;durP1;ratioP1;P1;durP2;ratioP2;P2;SDS_P1;SDS_P2;PMS_P1;PMS_P2;Temp;Humidity;BMP_temperature;BMP_pressure;BME280_temperature;BME280_humidity;BME280_pressure;Samples;Min_cycle;Max_cycle;Signal;HPM_P1;HPM_P2
2021/12/04 00:00:09;;;;;;;55.63;31.50;;;5.70;99.90;;;;;;5015332;28;20695;-63
2021/12/04 00:02:35;;;;;;;58.72;32.60;;;5.60;99.90;;;;;;5010658;28;20179;-63
2021/12/04 00:05:03;;;;;;;58.92;32.88;;;5.60;99.90;;;;;;4993344;28;20583;-63
2021/12/04 00:07:31;;;;;;;57.60;32.38;;;5.60;99.90;;;;;;5015244;28;20099;-64
2021/12/04 00:10:03;;;;;;;64.63;33.90;;;5.60;99.90;;;;;;5006939;28;20116;-63
2021/12/04 00:12:33;;;;;;;65.93;34.75;;;5.60;99.90;;;;;;5006903;28;20156;-63
2021/12/04 00:15:02;;;;;;;72.25;36.45;;;5.60;99.90;;;;;;5006934;28;20111;-63
2021/12/04 00:17:28;;;;;;;64.72;35.13;;;5.60;99.90;;;;;;4993105;28;20044;-63
2021/12/04 00:19:54;;;;;;;72.07;35.88;;;5.60;99.90;;;;;;5010730;28;20040;-62
2021/12/04 00:22:20;;;;;;;69.55;35.75;;;5.60;99.90;;;;;;5009830;28;20388;-63
2021/12/04 00:24:47;;;;;;;76.25;36.63;;;5.60;99.90;;;;;;5004390;28;20056;-63
2021/12/04 00:27:12;;;;;;;73.32;36.92;;;5.60;99.90;;;;;;4998021;28;20267;-63
2021/12/04 00:29:38;;;;;;;76.65;36.80;;;5.60;99.90;;;;;;5004460;28;20045;-63
2021/12/04 00:32:11;;;;;;;69.72;34.13;;;5.50;99.90;;;;;;5006661;28;20044;-63
2021/12/04 00:34:42;;;;;;;80.75;33.97;;;5.50;99.90;;;;;;5008129;28;20118;-64
2021/12/04 00:37:46;;;;;;;83.40;36.67;;;5.50;99.90;;;;;;4995534;28;20060;-64
2021/12/04 00:51:00;;;;;;;84.15;36.78;;;5.40;99.90;;;;;;5006722;28;19925;-64
2021/12/04 00:53:26;;;;;;;78.32;35.50;;;5.50;99.90;;;;;;5005224;28;20153;-64
2021/12/04 00:55:51;;;;;;;86.07;34.97;;;5.40;99.90;;;;;;5007079;28;20955;-64
2021/12/04 00:58:17;;;;;;;85.97;35.70;;;5.40;99.90;;;;;;4993199;28;20602;-64
2021/12/04 01:00:43;;;;;;;90.00;38.00;;;5.50;99.90;;;;;;5002758;28;21568;-64
2021/12/04 01:03:09;;;;;;;83.18;35.40;;;5.50;99.90;;;;;;4994059;28;20041;-64
2021/12/04 01:05:34;;;;;;;83.75;35.05;;;5.40;99.90;;;;;;4969402;28;20874;-64
2021/12/04 01:08:00;;;;;;;95.65;36.75;;;5.40;99.90;;;;;;5010497;28;20040;-64
2021/12/04 01:10:26;;;;;;;95.07;37.00;;;5.40;99.90;;;;;;5008878;28;20095;-63
2021/12/04 01:12:52;;;;;;;93.95;35.30;;;5.40;99.90;;;;;;5008061;28;20049;-64
2021/12/04 01:15:19;;;;;;;87.63;33.85;;;5.40;99.90;;;;;;4997188;28;20041;-64
2021/12/04 01:17:44;;;;;;;86.63;35.05;;;5.40;99.90;;;;;;4987951;28;20102;-64
2021/12/04 01:20:11;;;;;;;90.78;35.47;;;5.40;99.90;;;;;;4997158;28;20440;-64
2021/12/04 01:22:39;;;;;;;104.43;35.92;;;5.40;99.90;;;;;;5008902;28;20049;-63
2021/12/04 01:25:05;;;;;;;82.40;34.42;;;5.40;99.90;;;;;;4987962;28;20063;-62
2021/12/04 01:27:30;;;;;;;116.35;38.38;;;5.40;99.90;;;;;;4993869;28;20287;-62
2021/12/04 01:29:56;;;;;;;87.47;34.67;;;5.40;99.90;;;;;;4990501;28;20519;-62
2021/12/04 01:32:22;;;;;;;90.95;34.00;;;5.40;99.90;;;;;;4987565;28;20049;-62
2021/12/04 01:34:48;;;;;;;91.32;33.50;;;5.40;99.90;;;;;;4995919;28;20048;-62
2021/12/04 01:37:14;;;;;;;92.13;33.97;;;5.40;99.90;;;;;;4988759;28;20193;-62
2021/12/04 01:39:39;;;;;;;89.32;34.53;;;5.40;99.90;;;;;;4994018;28;20053;-62
2021/12/04 01:42:05;;;;;;;91.15;32.85;;;5.40;99.90;;;;;;5004937;28;20049;-62
2021/12/04 01:44:31;;;;;;;93.35;33.17;;;5.40;99.90;;;;;;5003992;28;20034;-62
2021/12/04 01:46:57;;;;;;;91.75;33.67;;;5.30;99.90;;;;;;5010110;28;20487;-62
2021/12/04 01:49:24;;;;;;;89.90;33.63;;;5.30;99.90;;;;;;5009828;28;20549;-62
2021/12/04 01:51:50;;;;;;;92.53;32.88;;;5.30;99.90;;;;;;4994104;28;20037;-62
2021/12/04 01:54:16;;;;;;;91.00;33.05;;;5.30;99.90;;;;;;5009703;28;20517;-63
2021/12/04 01:56:42;;;;;;;74.38;30.92;;;5.30;99.90;;;;;;5008921;28;20052;-64
2021/12/04 01:59:09;;;;;;;84.80;31.08;;;5.30;99.90;;;;;;5007780;28;20733;-64
2021/12/04 02:01:34;;;;;;;103.40;32.40;;;5.30;99.90;;;;;;4991103;28;21474;-62
2021/12/04 02:04:00;;;;;;;85.68;32.78;;;5.40;99.90;;;;;;5009744;28;20043;-63
2021/12/04 02:06:26;;;;;;;86.05;30.38;;;5.30;99.90;;;;;;5002510;28;20090;-62
2021/12/04 02:08:51;;;;;;;90.32;32.90;;;5.30;99.90;;;;;;4996105;28;20044;-64
2021/12/04 02:11:17;;;;;;;90.80;31.42;;;5.30;99.90;;;;;;5009531;28;20041;-63
2021/12/04 02:13:43;;;;;;;103.50;30.63;;;5.30;99.90;;;;;;4994281;28;20047;-63
2021/12/04 02:16:17;;;;;;;94.13;31.80;;;5.30;99.90;;;;;;5002094;28;20053;-63
2021/12/04 02:18:43;;;;;;;129.82;36.00;;;5.40;99.90;;;;;;4981862;28;20159;-63
2021/12/04 02:21:08;;;;;;;136.50;37.30;;;5.30;99.90;;;;;;4998307;28;20950;-63
2021/12/04 02:23:34;;;;;;;75.47;29.27;;;5.30;99.90;;;;;;4989713;28;20310;-63
2021/12/04 02:26:00;;;;;;;95.03;33.33;;;5.30;99.90;;;;;;4992994;28;20045;-63
2021/12/04 02:28:26;;;;;;;87.53;33.47;;;5.30;99.90;;;;;;4980924;28;20033;-64
2021/12/04 02:30:51;;;;;;;81.18;31.55;;;5.30;99.90;;;;;;4990312;28;20045;-64
2021/12/04 02:33:18;;;;;;;92.40;31.55;;;5.40;99.90;;;;;;5004435;28;20626;-64
2021/12/04 02:35:55;;;;;;;92.00;31.50;;;5.40;99.90;;;;;;5007477;28;20455;-64
2021/12/04 02:38:25;;;;;;;76.22;29.80;;;5.30;99.90;;;;;;4988730;28;20041;-64
2021/12/04 02:40:54;;;;;;;74.40;27.45;;;5.30;99.90;;;;;;5011044;28;20061;-64
2021/12/04 02:43:20;;;;;;;74.82;29.20;;;5.30;99.90;;;;;;5005214;28;20615;-64
2021/12/04 02:45:45;;;;;;;80.18;31.20;;;5.30;99.90;;;;;;4996796;28;20041;-63
2021/12/04 02:48:11;;;;;;;66.13;27.27;;;5.30;99.90;;;;;;5008224;28;20068;-64
2021/12/04 02:50:38;;;;;;;77.50;29.98;;;5.30;99.90;;;;;;5000786;28;20051;-64
2021/12/04 02:53:04;;;;;;;72.50;28.83;;;5.30;99.90;;;;;;5009380;28;20051;-63
2021/12/04 02:55:30;;;;;;;93.93;31.73;;;5.30;99.90;;;;;;5005678;28;20040;-64
2021/12/04 02:57:55;;;;;;;83.18;32.38;;;5.30;99.90;;;;;;5009893;28;20037;-63
2021/12/04 03:00:24;;;;;;;78.18;29.85;;;5.30;99.90;;;;;;4990578;28;20053;-64
2021/12/04 03:02:51;;;;;;;71.63;29.38;;;5.30;99.90;;;;;;5001576;28;20041;-63
2021/12/04 03:05:23;;;;;;;73.13;27.88;;;5.30;99.90;;;;;;5008772;28;20046;-64
2021/12/04 03:07:51;;;;;;;85.45;29.85;;;5.30;99.90;;;;;;4984158;28;20328;-64
2021/12/04 03:10:17;;;;;;;93.40;31.08;;;5.30;99.90;;;;;;4986749;28;20049;-63
2021/12/04 03:12:42;;;;;;;67.55;26.42;;;5.30;99.90;;;;;;5009574;28;20071;-64
2021/12/04 03:15:09;;;;;;;63.28;28.02;;;5.20;99.90;;;;;;4996503;28;20604;-63
2021/12/04 03:17:34;;;;;;;68.50;26.88;;;5.30;99.90;;;;;;5000239;28;20740;-63
2021/12/04 03:20:01;;;;;;;77.80;28.40;;;5.20;99.90;;;;;;5008297;28;20047;-63
2021/12/04 03:22:27;;;;;;;78.10;27.83;;;5.30;99.90;;;;;;5015536;28;20103;-63
2021/12/04 03:24:55;;;;;;;83.63;28.77;;;5.30;99.90;;;;;;5005859;28;20443;-62
2021/12/04 03:27:22;;;;;;;79.80;28.25;;;5.20;99.90;;;;;;5004598;28;20041;-63
2021/12/04 03:29:54;;;;;;;66.82;26.48;;;5.20;99.90;;;;;;5010453;28;20057;-63
2021/12/04 03:40:38;;;;;;;74.43;28.58;;;5.20;99.90;;;;;;5018876;28;20053;-63
2021/12/04 03:43:08;;;;;;;73.03;26.88;;;5.30;99.90;;;;;;4990426;28;20040;-63
2021/12/04 03:45:37;;;;;;;81.80;28.10;;;5.30;99.90;;;;;;5012448;28;20045;-63
2021/12/04 03:48:28;;;;;;;74.75;27.67;;;5.20;99.90;;;;;;5009751;28;20037;-63
2021/12/04 03:50:54;;;;;;;77.90;28.85;;;5.20;99.90;;;;;;5004679;28;20048;-63
2021/12/04 03:53:20;;;;;;;73.53;27.42;;;5.30;99.90;;;;;;5010490;28;20392;-62
2021/12/04 03:55:46;;;;;;;78.45;27.30;;;5.20;99.90;;;;;;4987044;28;20072;-63
2021/12/04 03:58:12;;;;;;;64.63;25.45;;;5.20;99.90;;;;;;5010052;28;22576;-63
2021/12/04 04:00:38;;;;;;;73.75;26.65;;;5.30;99.90;;;;;;5007462;28;20053;-63
2021/12/04 04:03:04;;;;;;;88.20;29.02;;;5.30;99.90;;;;;;5012265;28;21579;-63
2021/12/04 04:05:30;;;;;;;78.35;27.70;;;5.30;99.90;;;;;;4995866;28;20095;-64
2021/12/04 04:07:56;;;;;;;70.63;26.40;;;5.30;99.90;;;;;;5003801;28;20047;-63
2021/12/04 04:10:22;;;;;;;71.32;26.15;;;5.20;99.90;;;;;;5013832;28;20095;-63
2021/12/04 04:12:48;;;;;;;74.30;27.00;;;5.20;99.90;;;;;;5009856;28;20041;-63
2021/12/04 04:15:15;;;;;;;67.30;25.42;;;5.30;99.90;;;;;;5009484;28;20071;-63
2021/12/04 04:17:44;;;;;;;68.63;24.60;;;5.30;99.90;;;;;;4992809;28;20133;-63
2021/12/04 04:20:20;;;;;;;70.25;26.67;;;5.20;99.90;;;;;;5008153;28;20383;-63
2021/12/04 04:22:48;;;;;;;91.00;27.75;;;5.20;99.90;;;;;;5017732;28;20395;-63
2021/12/04 04:25:16;;;;;;;63.47;24.00;;;5.20;99.90;;;;;;5015524;28;20044;-63
2021/12/04 04:27:42;;;;;;;61.67;24.60;;;5.20;99.90;;;;;;5012447;28;20327;-63
2021/12/04 04:30:12;;;;;;;84.10;24.88;;;5.20;99.90;;;;;;5008609;28;20037;-63
2021/12/04 04:32:38;;;;;;;54.28;21.98;;;5.30;99.90;;;;;;5001669;28;20331;-63
2021/12/04 04:35:23;;;;;;;63.75;25.05;;;5.30;99.90;;;;;;5005323;28;20041;-63
2021/12/04 05:00:10;;;;;;;58.20;22.65;;;5.20;99.90;;;;;;5007146;28;20183;-62
2021/12/04 05:13:15;;;;;;;83.93;24.35;;;5.20;99.90;;;;;;5011620;28;19928;-62
2021/12/04 05:20:48;;;;;;;64.65;24.50;;;5.20;99.90;;;;;;4992181;28;20058;-62
2021/12/04 05:23:13;;;;;;;83.53;26.45;;;5.20;99.90;;;;;;4988264;28;20048;-63
2021/12/04 05:25:39;;;;;;;70.75;24.85;;;5.20;99.90;;;;;;5005278;28;20491;-63
2021/12/04 05:28:06;;;;;;;73.68;27.48;;;5.30;99.90;;;;;;4988838;28;20045;-63
2021/12/04 05:30:32;;;;;;;78.82;25.30;;;5.20;99.90;;;;;;4995319;28;20044;-63
2021/12/04 05:32:58;;;;;;;78.28;27.52;;;5.20;99.90;;;;;;5014232;28;20041;-63
2021/12/04 05:35:24;;;;;;;81.22;26.08;;;5.20;99.90;;;;;;4975438;28;20045;-63
2021/12/04 05:37:50;;;;;;;84.57;25.85;;;5.30;99.90;;;;;;5011201;28;20033;-63
2021/12/04 05:40:16;;;;;;;67.25;24.63;;;5.30;99.90;;;;;;4994706;28;20583;-63
2021/12/04 05:42:43;;;;;;;73.35;24.95;;;5.30;99.90;;;;;;4993596;28;20110;-62
2021/12/04 05:45:23;;;;;;;70.60;25.60;;;5.30;99.90;;;;;;5006782;28;20126;-62
2021/12/04 05:47:56;;;;;;;90.85;25.33;;;5.20;99.90;;;;;;5010125;28;20067;-62
2021/12/04 05:53:13;;;;;;;55.88;21.80;;;5.20;99.90;;;;;;5004850;28;20060;-53
2021/12/04 05:55:51;;;;;;;83.78;26.45;;;5.30;99.90;;;;;;4996124;28;20049;-53
2021/12/04 05:58:18;;;;;;;80.72;25.02;;;5.30;99.90;;;;;;5027703;28;20045;-56
2021/12/04 06:00:43;;;;;;;76.30;25.60;;;5.30;99.90;;;;;;5006508;28;20080;-55
2021/12/04 06:03:09;;;;;;;74.78;25.85;;;5.30;99.90;;;;;;4997364;28;20515;-54
2021/12/04 06:05:36;;;;;;;91.13;27.02;;;5.30;99.90;;;;;;4982523;28;20537;-51
2021/12/04 06:08:02;;;;;;;80.90;24.92;;;5.30;99.90;;;;;;5007478;28;20044;-54
2021/12/04 06:10:29;;;;;;;78.63;27.13;;;5.30;99.90;;;;;;4977307;28;20091;-56
2021/12/04 06:12:55;;;;;;;67.03;26.85;;;5.30;99.90;;;;;;5016710;28;20454;-53
2021/12/04 06:15:20;;;;;;;91.72;25.67;;;5.30;99.90;;;;;;5011264;28;20041;-55
2021/12/04 06:17:47;;;;;;;84.13;26.05;;;5.30;99.90;;;;;;5017645;28;20144;-51
2021/12/04 06:22:57;;;;;;;82.40;26.60;;;5.30;99.90;;;;;;5013832;28;20048;-54
2021/12/04 06:25:27;;;;;;;76.05;25.55;;;5.30;99.90;;;;;;5023892;28;20384;-57
2021/12/04 06:27:53;;;;;;;90.82;28.27;;;5.30;99.90;;;;;;5004659;28;20533;-54
2021/12/04 06:30:20;;;;;;;59.60;23.65;;;5.30;99.90;;;;;;5007832;28;20553;-57
2021/12/04 06:32:48;;;;;;;73.40;25.45;;;5.30;99.90;;;;;;5020760;28;20041;-52
2021/12/04 06:35:16;;;;;;;89.43;26.58;;;5.30;99.90;;;;;;5027278;28;20041;-56
2021/12/04 06:37:43;;;;;;;88.78;25.73;;;5.30;99.90;;;;;;5009739;28;20040;-55
2021/12/04 06:40:11;;;;;;;75.65;25.58;;;5.30;99.90;;;;;;5018627;28;20045;-56
2021/12/04 06:42:39;;;;;;;80.05;25.65;;;5.30;99.90;;;;;;5023081;28;20077;-57
2021/12/04 06:45:06;;;;;;;79.38;25.88;;;5.30;99.90;;;;;;5015744;28;20084;-52
2021/12/04 06:47:33;;;;;;;73.05;24.33;;;5.30;99.90;;;;;;5020597;28;20540;-56
2021/12/04 06:50:06;;;;;;;82.53;27.13;;;5.30;99.90;;;;;;5002891;28;20764;-54
2021/12/04 06:52:32;;;;;;;83.85;29.10;;;5.30;99.90;;;;;;5004646;28;20524;-54
2021/12/04 06:55:00;;;;;;;91.28;27.48;;;5.30;99.90;;;;;;5009298;28;20048;-56
2021/12/04 06:57:31;;;;;;;94.13;27.10;;;5.20;99.90;;;;;;5018858;28;20087;-54
2021/12/04 06:59:58;;;;;;;81.25;26.60;;;5.30;99.90;;;;;;5010395;28;20383;-55
2021/12/04 07:02:23;;;;;;;72.47;25.83;;;5.30;99.90;;;;;;4987615;28;20583;-56
2021/12/04 07:04:49;;;;;;;75.90;25.83;;;5.30;99.90;;;;;;5010444;28;20061;-51
2021/12/04 07:07:16;;;;;;;65.32;24.67;;;5.30;99.90;;;;;;5000126;28;20045;-52
2021/12/04 07:09:43;;;;;;;77.70;24.25;;;5.30;99.90;;;;;;5012060;28;20167;-57
2021/12/04 07:12:09;;;;;;;72.25;24.17;;;5.30;99.90;;;;;;5014603;28;20633;-55
2021/12/04 07:14:36;;;;;;;101.13;26.27;;;5.30;99.90;;;;;;5007704;28;20045;-55
2021/12/04 07:17:04;;;;;;;76.80;23.98;;;5.20;99.90;;;;;;5005780;28;20099;-52
2021/12/04 07:19:31;;;;;;;71.43;22.95;;;5.30;99.90;;;;;;4998012;28;20037;-54
2021/12/04 07:21:57;;;;;;;86.65;23.30;;;5.20;99.90;;;;;;4985955;28;20061;-57
2021/12/04 07:24:23;;;;;;;67.07;22.23;;;5.30;99.90;;;;;;5001603;28;20060;-56
2021/12/04 07:26:49;;;;;;;90.63;25.08;;;5.20;99.90;;;;;;4975525;28;20041;-56
2021/12/04 07:29:14;;;;;;;104.05;25.65;;;5.30;99.90;;;;;;5008889;28;20045;-54
2021/12/04 07:31:41;;;;;;;78.45;22.77;;;5.20;99.90;;;;;;5009358;28;20317;-56
2021/12/04 07:34:08;;;;;;;70.65;21.65;;;5.30;99.90;;;;;;5008419;28;20041;-56
2021/12/04 07:36:34;;;;;;;73.78;24.33;;;5.20;99.90;;;;;;5004598;28;20132;-53
2021/12/04 07:39:01;;;;;;;77.85;23.55;;;5.30;99.90;;;;;;4994100;28;20715;-54
2021/12/04 07:41:27;;;;;;;71.78;23.40;;;5.20;99.90;;;;;;5012185;28;20045;-57
2021/12/04 07:43:53;;;;;;;74.90;23.60;;;5.30;99.90;;;;;;5012688;28;20044;-55
2021/12/04 07:46:19;;;;;;;72.38;21.95;;;5.30;99.90;;;;;;5002506;28;20045;-55
2021/12/04 07:48:45;;;;;;;69.75;22.52;;;5.30;99.90;;;;;;5005718;28;20048;-52
2021/12/04 07:51:11;;;;;;;68.78;23.58;;;5.30;99.90;;;;;;5002433;28;20581;-55
2021/12/04 07:53:37;;;;;;;67.65;22.52;;;5.30;99.90;;;;;;5004833;28;20061;-57
2021/12/04 07:56:04;;;;;;;69.40;21.40;;;5.30;99.90;;;;;;5009067;28;20033;-55
2021/12/04 07:58:30;;;;;;;67.07;23.00;;;5.30;99.90;;;;;;5012851;28;20251;-52
2021/12/04 08:00:56;;;;;;;86.78;24.65;;;5.30;99.90;;;;;;4992756;28;20095;-58
2021/12/04 08:03:22;;;;;;;69.00;22.50;;;5.30;99.90;;;;;;5007612;28;20045;-56
2021/12/04 08:05:49;;;;;;;74.63;22.92;;;5.30;99.90;;;;;;4976330;28;20449;-53
2021/12/04 08:08:15;;;;;;;58.67;20.40;;;5.30;99.90;;;;;;5009873;28;22075;-57
2021/12/04 08:10:41;;;;;;;59.15;21.67;;;5.30;99.90;;;;;;4996092;28;20390;-57
2021/12/04 08:13:07;;;;;;;52.28;19.25;;;5.30;99.90;;;;;;5013782;28;20049;-57
2021/12/04 08:15:36;;;;;;;68.22;21.75;;;5.20;99.90;;;;;;5010657;28;21042;-56
2021/12/04 08:18:03;;;;;;;69.15;21.60;;;5.20;99.90;;;;;;5027648;28;20056;-57
2021/12/04 08:20:29;;;;;;;65.97;20.52;;;5.30;99.90;;;;;;5007898;28;20063;-58
2021/12/04 08:22:55;;;;;;;70.55;22.02;;;5.30;99.90;;;;;;5010521;28;20067;-57
2021/12/04 08:25:22;;;;;;;73.20;21.38;;;5.30;99.90;;;;;;5015551;28;20396;-57
2021/12/04 08:27:49;;;;;;;69.07;21.92;;;5.30;99.90;;;;;;5016195;28;20520;-56
2021/12/04 08:30:27;;;;;;;68.50;21.30;;;5.30;99.90;;;;;;4997463;28;20053;-54
2021/12/04 08:32:56;;;;;;;62.92;20.92;;;5.30;99.90;;;;;;4992326;28;20047;-55
2021/12/04 08:35:28;;;;;;;77.05;22.65;;;5.30;99.90;;;;;;5013362;28;20041;-56
2021/12/04 08:37:58;;;;;;;87.20;22.10;;;5.30;99.90;;;;;;5010766;28;20041;-58
2021/12/04 08:40:27;;;;;;;60.13;20.00;;;5.30;99.90;;;;;;5006064;28;20253;-56
2021/12/04 08:42:53;;;;;;;68.50;22.00;;;5.30;99.90;;;;;;5011912;28;20452;-58
2021/12/04 08:45:20;;;;;;;73.38;21.42;;;5.30;99.90;;;;;;4996875;28;20048;-56
2021/12/04 08:47:46;;;;;;;78.32;21.98;;;5.30;99.90;;;;;;5001820;28;20041;-57
2021/12/04 08:50:16;;;;;;;57.53;19.35;;;5.30;99.90;;;;;;5006087;28;20049;-58
2021/12/04 08:52:42;;;;;;;71.82;20.02;;;5.30;99.90;;;;;;5012062;28;20050;-57
2021/12/04 08:55:09;;;;;;;69.93;21.23;;;5.30;99.90;;;;;;5004578;28;20037;-55
2021/12/04 08:57:35;;;;;;;81.65;20.80;;;5.30;99.90;;;;;;4999177;28;20049;-57
2021/12/04 09:00:01;;;;;;;61.20;21.42;;;5.30;99.90;;;;;;5005846;28;20122;-56
2021/12/04 09:02:27;;;;;;;66.70;21.50;;;5.30;99.90;;;;;;5031912;28;20040;-57
2021/12/04 09:04:54;;;;;;;72.95;21.73;;;5.30;99.90;;;;;;5004073;28;20051;-57
2021/12/04 09:07:21;;;;;;;64.53;20.73;;;5.30;99.90;;;;;;5012946;28;20068;-55
2021/12/04 09:09:47;;;;;;;58.55;20.20;;;5.30;99.90;;;;;;4984993;28;20094;-58
2021/12/04 09:12:14;;;;;;;69.28;21.67;;;5.30;99.90;;;;;;5005686;28;20052;-57
2021/12/04 09:14:45;;;;;;;68.15;22.02;;;5.40;99.90;;;;;;4986044;28;20052;-57
2021/12/04 09:17:14;;;;;;;69.68;22.23;;;5.40;99.90;;;;;;5022991;28;20047;-57
2021/12/04 09:19:40;;;;;;;71.30;21.25;;;5.40;99.90;;;;;;5002986;28;20137;-57
2021/12/04 09:22:12;;;;;;;72.07;21.85;;;5.40;99.90;;;;;;5008763;28;20641;-57
2021/12/04 09:24:40;;;;;;;59.95;20.48;;;5.40;99.90;;;;;;5005732;28;20412;-58
2021/12/04 09:27:33;;;;;;;56.92;20.27;;;5.40;99.90;;;;;;4996728;28;20211;-52
2021/12/04 10:34:35;;;;;;;47.75;20.02;;;5.40;99.90;;;;;;5015234;28;20049;-56
2021/12/04 10:37:29;;;;;;;65.60;21.55;;;5.40;99.90;;;;;;5007159;28;20090;-56
2021/12/04 10:40:01;;;;;;;55.40;20.80;;;5.50;99.90;;;;;;5012975;28;20075;-56
2021/12/04 10:42:34;;;;;;;43.97;18.00;;;5.40;99.90;;;;;;5020150;28;20473;-57
2021/12/04 10:45:01;;;;;;;53.73;19.67;;;5.50;99.90;;;;;;5026481;28;20504;-55
2021/12/04 10:47:27;;;;;;;47.10;18.63;;;5.50;99.90;;;;;;5016257;28;20029;-56
2021/12/04 10:55:11;;;;;;;45.00;17.50;;;5.50;99.90;;;;;;5010200;28;20763;-55
2021/12/04 11:00:32;;;;;;;48.88;21.17;;;5.50;99.90;;;;;;5003153;28;21099;-57
2021/12/04 11:03:06;;;;;;;51.88;19.60;;;5.50;99.90;;;;;;5023602;28;20101;-57
2021/12/04 11:22:54;;;;;;;46.50;18.50;;;5.50;99.90;;;;;;5025341;28;20411;-56
2021/12/04 11:44:11;;;;;;;42.28;17.67;;;5.50;99.90;;;;;;5027099;28;20064;-54
2021/12/04 11:46:44;;;;;;;43.80;18.73;;;5.50;99.90;;;;;;5029317;28;20044;-57
2021/12/04 11:49:20;;;;;;;43.08;18.40;;;5.50;99.90;;;;;;5060963;22;20639;-63
2021/12/04 11:52:17;;;;;;;43.83;18.65;;;5.50;99.90;;;;;;5036165;28;20079;-63
2021/12/04 11:55:01;;;;;;;36.08;16.13;;;5.50;99.90;;;;;;5039446;28;20524;-63
2021/12/04 11:57:35;;;;;;;47.97;19.20;;;5.50;99.90;;;;;;5039775;28;20087;-63
2021/12/04 12:00:30;;;;;;;43.90;17.70;;;5.60;99.90;;;;;;5049908;28;20302;-63
2021/12/04 12:03:11;;;;;;;47.28;21.73;;;5.60;99.90;;;;;;5043085;28;20102;-62
2021/12/04 12:06:04;;;;;;;36.25;17.25;;;5.60;99.90;;;;;;5052632;28;20041;-62
2021/12/04 12:08:31;;;;;;;42.47;17.92;;;5.60;99.90;;;;;;5021857;28;20097;-63
2021/12/04 12:11:08;;;;;;;38.67;17.65;;;5.60;99.90;;;;;;5021946;28;20087;-63
2021/12/04 12:13:40;;;;;;;43.60;18.23;;;5.60;99.90;;;;;;5045163;28;20070;-63
2021/12/04 12:16:12;;;;;;;38.63;16.75;;;5.60;99.90;;;;;;5041779;28;20048;-63
2021/12/04 12:18:49;;;;;;;36.08;16.88;;;5.60;99.90;;;;;;5056272;28;20527;-63
2021/12/04 12:21:17;;;;;;;37.72;16.63;;;5.60;99.90;;;;;;5031321;28;20057;-62
2021/12/04 12:24:12;;;;;;;37.58;17.17;;;5.60;99.90;;;;;;5032153;28;20487;-63
2021/12/04 12:38:39;;;;;;;35.83;16.80;;;5.70;99.90;;;;;;5055148;28;20050;-62
2021/12/04 12:41:16;;;;;;;35.47;16.55;;;5.80;99.90;;;;;;5053903;28;20048;-63
2021/12/04 12:43:49;;;;;;;44.85;18.17;;;5.70;99.90;;;;;;5037027;28;20033;-63
2021/12/04 12:46:16;;;;;;;39.07;17.53;;;5.70;99.90;;;;;;5037898;28;20044;-63
2021/12/04 12:48:46;;;;;;;41.65;18.10;;;5.70;99.90;;;;;;5036830;28;20037;-63
2021/12/04 12:51:12;;;;;;;40.90;17.02;;;5.70;99.90;;;;;;5060406;28;20051;-63
2021/12/04 12:53:46;;;;;;;48.05;19.85;;;5.70;99.90;;;;;;5032175;28;20040;-63
2021/12/04 12:56:15;;;;;;;45.03;18.75;;;5.80;99.90;;;;;;5019648;28;20530;-62
2021/12/04 13:12:23;;;;;;;44.78;19.55;;;5.80;99.90;;;;;;5052604;28;20079;-64
2021/12/04 13:14:51;;;;;;;40.08;18.65;;;5.80;99.90;;;;;;5049821;28;20106;-64
2021/12/04 13:17:26;;;;;;;39.17;17.40;;;5.80;99.90;;;;;;5051114;28;20053;-64
2021/12/04 13:19:57;;;;;;;43.53;17.48;;;5.80;99.90;;;;;;5036766;28;20041;-64
2021/12/04 13:22:29;;;;;;;39.92;18.77;;;5.80;99.90;;;;;;5055142;28;20102;-64
2021/12/04 13:24:57;;;;;;;33.97;16.48;;;5.90;99.90;;;;;;5044154;28;20138;-64
2021/12/04 13:29:54;;;;;;;39.92;17.58;;;5.90;99.90;;;;;;5038412;28;20045;-63
2021/12/04 13:32:35;;;;;;;41.38;19.20;;;5.90;99.90;;;;;;5049312;28;20646;-63
2021/12/04 13:35:17;;;;;;;36.15;17.17;;;5.90;99.90;;;;;;5055299;28;20048;-63
2021/12/04 13:37:44;;;;;;;36.15;17.23;;;5.90;99.90;;;;;;5048609;28;20051;-63
2021/12/04 13:40:14;;;;;;;35.10;16.35;;;5.90;99.90;;;;;;5050215;28;20048;-63
2021/12/04 13:42:40;;;;;;;33.42;15.13;;;5.90;99.90;;;;;;5027664;28;20056;-63
2021/12/04 13:45:10;;;;;;;34.15;16.60;;;5.90;99.90;;;;;;5054946;28;20506;-63
2021/12/04 13:47:37;;;;;;;32.58;16.23;;;5.90;99.90;;;;;;5048183;28;20492;-63
2021/12/04 13:50:08;;;;;;;32.80;16.52;;;5.90;99.90;;;;;;5057816;28;20498;-63
2021/12/04 13:52:34;;;;;;;35.47;16.23;;;5.80;99.90;;;;;;5023166;28;20624;-63
2021/12/04 13:55:06;;;;;;;35.15;17.15;;;5.90;99.90;;;;;;5053740;28;20033;-63
2021/12/04 13:57:34;;;;;;;38.13;16.20;;;5.90;99.90;;;;;;5052874;28;20040;-63
2021/12/04 14:00:00;;;;;;;36.03;16.27;;;5.90;99.90;;;;;;5051855;28;20044;-63
2021/12/04 14:02:29;;;;;;;33.30;15.70;;;5.90;99.90;;;;;;5055762;28;20079;-63
2021/12/04 14:05:20;;;;;;;32.72;16.05;;;5.90;99.90;;;;;;5028093;28;20041;-63
2021/12/04 14:07:58;;;;;;;36.38;18.05;;;5.90;99.90;;;;;;5040781;28;20072;-63
2021/12/04 14:10:31;;;;;;;36.50;17.52;;;5.90;99.90;;;;;;5033040;28;20049;-63
2021/12/04 14:13:02;;;;;;;37.60;18.52;;;5.90;99.90;;;;;;5042924;28;20127;-63
2021/12/04 14:15:28;;;;;;;31.40;16.30;;;5.90;99.90;;;;;;5028445;28;20040;-63
2021/12/04 14:18:12;;;;;;;32.20;15.75;;;5.90;99.90;;;;;;5022375;28;20086;-63
2021/12/04 14:20:41;;;;;;;32.70;16.50;;;5.90;99.90;;;;;;5026724;28;20040;-63
2021/12/04 14:23:08;;;;;;;33.70;17.02;;;5.90;99.90;;;;;;5036652;28;20056;-63
2021/12/04 14:25:42;;;;;;;32.22;16.77;;;5.80;99.90;;;;;;5024746;28;20068;-63
2021/12/04 14:28:09;;;;;;;33.55;17.35;;;5.80;99.90;;;;;;5031787;28;20075;-63
2021/12/04 14:30:36;;;;;;;41.35;20.95;;;5.90;99.90;;;;;;5021535;28;20045;-63
2021/12/04 14:33:06;;;;;;;42.50;19.63;;;5.90;99.90;;;;;;5029523;28;20197;-63
2021/12/04 14:35:34;;;;;;;35.25;16.58;;;5.90;99.90;;;;;;5037955;28;20087;-63
2021/12/04 14:38:02;;;;;;;32.40;16.88;;;5.80;99.90;;;;;;5042614;28;20044;-63
2021/12/04 14:40:41;;;;;;;36.90;18.20;;;5.90;99.90;;;;;;5035209;28;20056;-63
2021/12/04 14:43:14;;;;;;;46.55;20.38;;;5.90;99.90;;;;;;5041280;28;20054;-63
2021/12/04 14:45:43;;;;;;;40.13;19.77;;;5.90;99.90;;;;;;5033593;28;21555;-63
2021/12/04 14:48:18;;;;;;;43.13;20.23;;;5.80;99.90;;;;;;5038551;28;20103;-63
2021/12/04 14:50:48;;;;;;;46.15;19.98;;;5.80;99.90;;;;;;5038467;28;20174;-64
2021/12/04 14:53:16;;;;;;;52.80;21.35;;;5.80;99.90;;;;;;5039997;28;20048;-64
2021/12/04 14:55:44;;;;;;;41.70;17.85;;;5.80;99.90;;;;;;5025612;28;20063;-62
2021/12/04 14:58:13;;;;;;;41.60;20.08;;;5.80;99.90;;;;;;5035580;28;20933;-63
2021/12/04 15:01:01;;;;;;;40.47;19.73;;;5.80;99.90;;;;;;5044031;28;20047;-63
2021/12/04 15:03:40;;;;;;;38.47;17.75;;;5.80;99.90;;;;;;5036864;28;20515;-64
2021/12/04 15:06:11;;;;;;;50.70;20.70;;;5.80;99.90;;;;;;5024540;28;20029;-63
2021/12/04 15:08:40;;;;;;;45.08;19.90;;;5.80;99.90;;;;;;5031609;28;20045;-63
2021/12/04 15:11:21;;;;;;;44.53;19.80;;;5.80;99.90;;;;;;5033956;28;20078;-63
2021/12/04 15:14:02;;;;;;;45.25;19.33;;;5.80;99.90;;;;;;5032262;28;20049;-63
2021/12/04 15:16:38;;;;;;;48.03;19.70;;;5.80;99.90;;;;;;5036373;28;20045;-63
2021/12/04 15:19:08;;;;;;;42.92;18.80;;;5.80;99.90;;;;;;5044059;28;20082;-63
2021/12/04 15:21:40;;;;;;;46.25;20.05;;;5.80;99.90;;;;;;5038823;28;20313;-63
2021/12/04 15:24:12;;;;;;;57.65;20.92;;;5.80;99.90;;;;;;5043279;28;20040;-63
2021/12/04 15:26:43;;;;;;;61.20;23.58;;;5.80;99.90;;;;;;5029847;28;20842;-63
2021/12/04 15:29:19;;;;;;;50.05;20.35;;;5.80;99.90;;;;;;5022025;28;20072;-63
2021/12/04 15:31:45;;;;;;;59.63;22.42;;;5.80;99.90;;;;;;5014883;28;20033;-62
2021/12/04 15:34:11;;;;;;;42.75;17.77;;;5.80;99.90;;;;;;5014504;28;20052;-63
2021/12/04 15:36:40;;;;;;;51.85;19.98;;;5.80;99.90;;;;;;5033044;28;20044;-63
2021/12/04 15:39:15;;;;;;;47.45;20.30;;;5.80;99.90;;;;;;5027339;28;20041;-62
2021/12/04 15:55:46;;;;;;;45.03;18.17;;;5.80;99.90;;;;;;5035341;28;20060;-64
2021/12/04 15:58:15;;;;;;;44.78;19.52;;;5.80;99.90;;;;;;5042264;28;20051;-64
2021/12/04 16:00:46;;;;;;;45.40;19.10;;;5.80;99.90;;;;;;5042485;28;20291;-64
2021/12/04 16:03:16;;;;;;;48.50;19.52;;;5.80;99.90;;;;;;5038286;28;20040;-64
2021/12/04 16:05:57;;;;;;;43.33;19.10;;;5.80;99.90;;;;;;5046932;28;20039;-64
2021/12/04 16:08:26;;;;;;;42.65;19.15;;;5.80;99.90;;;;;;5036017;28;20507;-65
2021/12/04 16:10:52;;;;;;;43.42;18.63;;;5.80;99.90;;;;;;5048339;28;20062;-64
2021/12/04 16:13:28;;;;;;;40.03;18.77;;;5.80;99.90;;;;;;5022620;28;20083;-64
2021/12/04 16:15:59;;;;;;;46.28;20.27;;;5.80;99.90;;;;;;5027589;28;20543;-64
2021/12/04 16:18:26;;;;;;;36.90;17.65;;;5.80;99.90;;;;;;5046090;28;20522;-64